Overview Statistics Trail Chart Weather Telemetry Raw packets
 

This is the latest recevied weather packets stored in our database for station/object SV9TNF-56. If no packets are shown the sender has not sent any weather packets the latest 10 day(s).

<< 107 108 109 110 111 112 113 >>
Time Temp. Humidity Pressure Rain* Wind** Luminosity Snow
1787850698 27.78° C 55% 1017.3 hPa 0 mm 36.21 m/s, 108° - -
1787850398 27.78° C 53% 1017.3 hPa 0 mm 34.87 m/s, 127° - -
1787850098 27.78° C 53% 1017.3 hPa 0 mm 23.69 m/s, 120° - -
1787849798 27.78° C 53% 1017.6 hPa 0 mm 37.1 m/s, 96° - -
1787849498 27.78° C 54% 1017.6 hPa 0 mm 26.82 m/s, 120° - -
1787849203 27.78° C 54% 1017.6 hPa 0 mm 23.25 m/s, 306° - -
1787848897 28.33° C 51% 1017.6 hPa 0 mm 23.25 m/s, 115° - -
1787848597 28.33° C 50% 1017.6 hPa 0 mm 22.8 m/s, 120° - -
1787848297 28.33° C 50% 1017.6 hPa 0 mm 16.99 m/s, 111° - -
1787847997 28.33° C 50% 1017.6 hPa 0 mm 16.09 m/s, 101° - -
1787847697 28.33° C 52% 1017.6 hPa 0 mm 13.86 m/s, 132° - -
1787847397 28.33° C 52% 1018 hPa 0 mm 15.2 m/s, 96° - -
1787847097 28.33° C 52% 1017.6 hPa 0 mm 5.81 m/s, 176° - -
1787846797 27.78° C 51% 1018 hPa 0 mm 13.86 m/s, 204° - -
1787846497 27.78° C 52% 1018 hPa 0 mm 14.75 m/s, 190° - -
1787846196 27.78° C 55% 1018 hPa 0 mm 8.49 m/s, 100° - -
1787845896 27.78° C 54% 1018.3 hPa 0 mm 8.49 m/s, 106° - -
1787845596 27.78° C 53% 1018.3 hPa 0 mm 7.6 m/s, 164° - -
1787845296 28.33° C 54% 1018.3 hPa 0 mm 12.52 m/s, 115° - -
1787844996 28.33° C 52% 1018 hPa 0 mm 13.86 m/s, 144° - -
1787844696 27.78° C 54% 1018 hPa 0 mm 10.28 m/s, 112° - -
1787844396 27.78° C 56% 1018 hPa 0 mm 13.41 m/s, 114° - -
1787844096 28.33° C 52% 1018 hPa 0 mm 8.94 m/s, 166° - -
1787843796 28.33° C 49% 1018 hPa 0 mm 5.81 m/s, 144° - -
1787843496 28.33° C 51% 1018 hPa 0 mm 12.96 m/s, 163° - -

* Rain latest hour (hover to see other rain measurements)
** Current wind speed in m/s (hover to see current wind gust speed)